Au Sable Forks, New York
Current Conditions -  °F | °C
As of 11:53 AM on Thursday 27 Nov 2014 (Local Time) from KPBG Reporting Station
Overcast Overcast  
Wind Chill: -6°   Ceiling: 3500
Heat Index: -2°   Visibility: 10mi
Dew Point: -5°   Wind: 7mph
Humidity: 78%   Direction: 20°NNE
Pressure: 30.02"   Gusts: NA
Location:  44.44°N, 73.67°W
Report Text: KPBG 271653Z AUTO 02006KT 10SM OVC035 M02/M05 A3002 RMK AO2 SLP171 T10171050
Loading
Personal Weather Stations






























Interactive Weather Map New forecast layout! Learn more

10-Day Weather Forecast

Advertisements
Track Severe Weather on mobile